sensor_id;sensor_type;location;lat;lon;timestamp;temperature;humidity
16968;DHT22;64862;54.398;10.126;2022-11-20T00:01:40;2.80;99.90
16968;DHT22;64862;54.398;10.126;2022-11-20T00:04:10;2.80;99.90
16968;DHT22;64862;54.398;10.126;2022-11-20T00:06:41;2.80;99.90
16968;DHT22;64862;54.398;10.126;2022-11-20T00:09:10;3.00;99.90
16968;DHT22;64862;54.398;10.126;2022-11-20T00:11:37;2.90;99.90
16968;DHT22;64862;54.398;10.126;2022-11-20T00:14:06;2.80;99.90
16968;DHT22;64862;54.398;10.126;2022-11-20T00:16:34;2.80;99.90
16968;DHT22;64862;54.398;10.126;2022-11-20T00:19:01;2.80;99.90
16968;DHT22;64862;54.398;10.126;2022-11-20T00:21:30;2.90;99.90
16968;DHT22;64862;54.398;10.126;2022-11-20T00:23:59;3.00;99.90
16968;DHT22;64862;54.398;10.126;2022-11-20T00:26:27;2.90;99.90
16968;DHT22;64862;54.398;10.126;2022-11-20T00:28:57;2.90;99.90
16968;DHT22;64862;54.398;10.126;2022-11-20T00:31:25;2.90;99.90
16968;DHT22;64862;54.398;10.126;2022-11-20T00:33:53;2.90;99.90
16968;DHT22;64862;54.398;10.126;2022-11-20T00:36:22;2.90;99.90
16968;DHT22;64862;54.398;10.126;2022-11-20T00:38:52;2.80;99.90
16968;DHT22;64862;54.398;10.126;2022-11-20T00:41:22;2.90;99.90
16968;DHT22;64862;54.398;10.126;2022-11-20T00:43:50;2.90;99.90
16968;DHT22;64862;54.398;10.126;2022-11-20T00:46:19;2.90;99.90
16968;DHT22;64862;54.398;10.126;2022-11-20T00:48:47;2.90;99.90
16968;DHT22;64862;54.398;10.126;2022-11-20T00:51:16;2.90;99.90
16968;DHT22;64862;54.398;10.126;2022-11-20T00:54:09;2.90;99.90
16968;DHT22;64862;54.398;10.126;2022-11-20T00:56:54;3.00;99.90
16968;DHT22;64862;54.398;10.126;2022-11-20T00:59:22;3.10;99.90
16968;DHT22;64862;54.398;10.126;2022-11-20T01:01:49;3.20;99.90
16968;DHT22;64862;54.398;10.126;2022-11-20T01:04:17;3.30;99.90
16968;DHT22;64862;54.398;10.126;2022-11-20T01:06:44;3.20;99.90
16968;DHT22;64862;54.398;10.126;2022-11-20T01:09:13;3.20;99.90
16968;DHT22;64862;54.398;10.126;2022-11-20T01:11:42;3.10;99.90
16968;DHT22;64862;54.398;10.126;2022-11-20T01:14:14;3.10;99.90
16968;DHT22;64862;54.398;10.126;2022-11-20T01:16:44;2.80;99.90
16968;DHT22;64862;54.398;10.126;2022-11-20T01:19:15;2.70;99.90
16968;DHT22;64862;54.398;10.126;2022-11-20T01:21:44;2.70;99.90
16968;DHT22;64862;54.398;10.126;2022-11-20T01:24:13;2.60;99.90
16968;DHT22;64862;54.398;10.126;2022-11-20T01:26:43;2.70;99.90
16968;DHT22;64862;54.398;10.126;2022-11-20T01:29:36;2.70;99.90
16968;DHT22;64862;54.398;10.126;2022-11-20T01:32:56;2.70;99.90
16968;DHT22;64862;54.398;10.126;2022-11-20T01:36:28;2.70;99.90
16968;DHT22;64862;54.398;10.126;2022-11-20T01:38:58;2.80;99.90
16968;DHT22;64862;54.398;10.126;2022-11-20T01:41:26;2.90;99.90
16968;DHT22;64862;54.398;10.126;2022-11-20T01:44:12;3.00;99.90
16968;DHT22;64862;54.398;10.126;2022-11-20T01:46:48;3.00;99.90
16968;DHT22;64862;54.398;10.126;2022-11-20T01:49:21;3.10;99.90
16968;DHT22;64862;54.398;10.126;2022-11-20T01:51:54;3.20;99.90
16968;DHT22;64862;54.398;10.126;2022-11-20T01:54:24;3.10;99.90
16968;DHT22;64862;54.398;10.126;2022-11-20T01:56:55;3.10;99.90
16968;DHT22;64862;54.398;10.126;2022-11-20T01:59:24;3.10;99.90
16968;DHT22;64862;54.398;10.126;2022-11-20T02:01:53;3.00;99.90
16968;DHT22;64862;54.398;10.126;2022-11-20T02:04:21;3.00;99.90
16968;DHT22;64862;54.398;10.126;2022-11-20T02:06:49;3.00;99.90
16968;DHT22;64862;54.398;10.126;2022-11-20T02:09:17;2.90;99.90
16968;DHT22;64862;54.398;10.126;2022-11-20T02:11:44;2.90;99.90
16968;DHT22;64862;54.398;10.126;2022-11-20T02:14:11;2.90;99.90
16968;DHT22;64862;54.398;10.126;2022-11-20T02:16:40;3.00;99.90
16968;DHT22;64862;54.398;10.126;2022-11-20T02:19:17;3.00;99.90
16968;DHT22;64862;54.398;10.126;2022-11-20T02:21:49;2.90;99.90
16968;DHT22;64862;54.398;10.126;2022-11-20T02:24:21;2.80;99.90
16968;DHT22;64862;54.398;10.126;2022-11-20T02:26:52;2.70;99.90
16968;DHT22;64862;54.398;10.126;2022-11-20T02:29:24;2.70;99.90
16968;DHT22;64862;54.398;10.126;2022-11-20T02:31:52;2.60;99.90
16968;DHT22;64862;54.398;10.126;2022-11-20T02:34:21;2.60;99.90
16968;DHT22;64862;54.398;10.126;2022-11-20T02:36:49;2.60;99.90
16968;DHT22;64862;54.398;10.126;2022-11-20T02:39:17;2.60;99.90
16968;DHT22;64862;54.398;10.126;2022-11-20T02:41:47;2.60;99.90
16968;DHT22;64862;54.398;10.126;2022-11-20T02:44:14;2.60;99.90
16968;DHT22;64862;54.398;10.126;2022-11-20T02:46:40;2.60;99.90
16968;DHT22;64862;54.398;10.126;2022-11-20T02:49:07;2.70;99.90
16968;DHT22;64862;54.398;10.126;2022-11-20T02:51:34;2.60;99.90
16968;DHT22;64862;54.398;10.126;2022-11-20T02:54:01;2.60;99.90
16968;DHT22;64862;54.398;10.126;2022-11-20T02:56:28;2.60;99.90
16968;DHT22;64862;54.398;10.126;2022-11-20T02:58:57;2.60;99.90
16968;DHT22;64862;54.398;10.126;2022-11-20T03:01:24;2.70;99.90
16968;DHT22;64862;54.398;10.126;2022-11-20T03:03:51;2.60;99.90
16968;DHT22;64862;54.398;10.126;2022-11-20T03:06:20;2.70;99.90
16968;DHT22;64862;54.398;10.126;2022-11-20T03:08:47;2.70;99.90
16968;DHT22;64862;54.398;10.126;2022-11-20T03:11:14;2.70;99.90
16968;DHT22;64862;54.398;10.126;2022-11-20T03:13:41;2.70;99.90
16968;DHT22;64862;54.398;10.126;2022-11-20T03:16:12;2.70;99.90
16968;DHT22;64862;54.398;10.126;2022-11-20T03:18:40;2.70;99.90
16968;DHT22;64862;54.398;10.126;2022-11-20T03:21:07;2.70;99.90
16968;DHT22;64862;54.398;10.126;2022-11-20T03:23:35;2.70;99.90
16968;DHT22;64862;54.398;10.126;2022-11-20T03:26:10;2.70;99.90
16968;DHT22;64862;54.398;10.126;2022-11-20T03:28:37;2.60;99.90
16968;DHT22;64862;54.398;10.126;2022-11-20T03:31:10;2.60;99.90
16968;DHT22;64862;54.398;10.126;2022-11-20T03:33:37;2.30;99.90
16968;DHT22;64862;54.398;10.126;2022-11-20T03:36:07;2.30;99.90
16968;DHT22;64862;54.398;10.126;2022-11-20T03:38:34;2.30;99.90
16968;DHT22;64862;54.398;10.126;2022-11-20T03:41:03;2.30;99.90
16968;DHT22;64862;54.398;10.126;2022-11-20T03:43:31;2.40;99.90
16968;DHT22;64862;54.398;10.126;2022-11-20T03:45:58;2.10;99.90
16968;DHT22;64862;54.398;10.126;2022-11-20T03:48:28;2.10;99.90
16968;DHT22;64862;54.398;10.126;2022-11-20T03:51:07;2.40;99.90
16968;DHT22;64862;54.398;10.126;2022-11-20T03:53:34;2.40;99.90
16968;DHT22;64862;54.398;10.126;2022-11-20T03:56:02;2.50;99.90
16968;DHT22;64862;54.398;10.126;2022-11-20T03:58:32;2.60;99.90
16968;DHT22;64862;54.398;10.126;2022-11-20T04:01:04;2.60;99.90
16968;DHT22;64862;54.398;10.126;2022-11-20T04:03:33;2.70;99.90
16968;DHT22;64862;54.398;10.126;2022-11-20T04:06:05;2.70;99.90
16968;DHT22;64862;54.398;10.126;2022-11-20T04:08:32;2.70;99.90
16968;DHT22;64862;54.398;10.126;2022-11-20T04:11:11;2.70;99.90
16968;DHT22;64862;54.398;10.126;2022-11-20T04:13:38;2.60;99.90
16968;DHT22;64862;54.398;10.126;2022-11-20T04:16:06;2.60;99.90
16968;DHT22;64862;54.398;10.126;2022-11-20T04:18:35;2.50;99.90
16968;DHT22;64862;54.398;10.126;2022-11-20T04:21:03;2.50;99.90
16968;DHT22;64862;54.398;10.126;2022-11-20T04:23:31;2.40;99.90
16968;DHT22;64862;54.398;10.126;2022-11-20T04:26:01;2.40;99.90
16968;DHT22;64862;54.398;10.126;2022-11-20T04:28:28;2.60;99.90
16968;DHT22;64862;54.398;10.126;2022-11-20T04:31:02;2.60;99.90
16968;DHT22;64862;54.398;10.126;2022-11-20T04:33:29;2.60;99.90
16968;DHT22;64862;54.398;10.126;2022-11-20T04:36:01;2.60;99.90
16968;DHT22;64862;54.398;10.126;2022-11-20T04:38:29;2.60;99.90
16968;DHT22;64862;54.398;10.126;2022-11-20T04:40:57;2.60;99.90
16968;DHT22;64862;54.398;10.126;2022-11-20T04:43:25;2.60;99.90
16968;DHT22;64862;54.398;10.126;2022-11-20T04:45:52;2.60;99.90
16968;DHT22;64862;54.398;10.126;2022-11-20T04:48:19;2.60;99.90
16968;DHT22;64862;54.398;10.126;2022-11-20T04:50:50;2.70;99.90
16968;DHT22;64862;54.398;10.126;2022-11-20T04:53:18;2.60;99.90
16968;DHT22;64862;54.398;10.126;2022-11-20T04:55:46;2.60;99.90
16968;DHT22;64862;54.398;10.126;2022-11-20T04:58:13;2.60;99.90
16968;DHT22;64862;54.398;10.126;2022-11-20T05:00:40;2.50;99.90
16968;DHT22;64862;54.398;10.126;2022-11-20T05:03:07;2.60;99.90
16968;DHT22;64862;54.398;10.126;2022-11-20T05:05:34;2.60;99.90
16968;DHT22;64862;54.398;10.126;2022-11-20T05:08:01;2.60;99.90
16968;DHT22;64862;54.398;10.126;2022-11-20T05:10:30;2.60;99.90
16968;DHT22;64862;54.398;10.126;2022-11-20T05:12:57;2.50;99.90
16968;DHT22;64862;54.398;10.126;2022-11-20T05:15:24;2.60;99.90
16968;DHT22;64862;54.398;10.126;2022-11-20T05:17:52;2.60;99.90
16968;DHT22;64862;54.398;10.126;2022-11-20T05:20:19;2.60;99.90
16968;DHT22;64862;54.398;10.126;2022-11-20T05:22:46;2.60;99.90
16968;DHT22;64862;54.398;10.126;2022-11-20T05:25:16;2.60;99.90
16968;DHT22;64862;54.398;10.126;2022-11-20T05:27:45;2.50;99.90
16968;DHT22;64862;54.398;10.126;2022-11-20T05:30:13;2.50;99.90
16968;DHT22;64862;54.398;10.126;2022-11-20T05:32:40;2.50;99.90
16968;DHT22;64862;54.398;10.126;2022-11-20T05:35:07;2.40;99.90
16968;DHT22;64862;54.398;10.126;2022-11-20T05:37:35;2.30;99.90
16968;DHT22;64862;54.398;10.126;2022-11-20T05:40:02;2.40;99.90
16968;DHT22;64862;54.398;10.126;2022-11-20T05:42:30;2.40;99.90
16968;DHT22;64862;54.398;10.126;2022-11-20T05:44:59;2.40;99.90
16968;DHT22;64862;54.398;10.126;2022-11-20T05:47:28;2.40;99.90
16968;DHT22;64862;54.398;10.126;2022-11-20T05:49:58;2.40;99.90
16968;DHT22;64862;54.398;10.126;2022-11-20T05:52:27;2.40;99.90
16968;DHT22;64862;54.398;10.126;2022-11-20T05:54:55;2.30;99.90
16968;DHT22;64862;54.398;10.126;2022-11-20T05:57:22;2.30;99.90
16968;DHT22;64862;54.398;10.126;2022-11-20T05:59:49;2.30;99.90
16968;DHT22;64862;54.398;10.126;2022-11-20T06:02:17;2.20;99.90
16968;DHT22;64862;54.398;10.126;2022-11-20T06:04:44;2.30;99.90
16968;DHT22;64862;54.398;10.126;2022-11-20T06:07:11;2.20;99.90
16968;DHT22;64862;54.398;10.126;2022-11-20T06:09:38;2.10;99.90
16968;DHT22;64862;54.398;10.126;2022-11-20T06:12:05;2.10;99.90
16968;DHT22;64862;54.398;10.126;2022-11-20T06:14:36;2.10;99.90
16968;DHT22;64862;54.398;10.126;2022-11-20T06:17:03;2.10;99.90
16968;DHT22;64862;54.398;10.126;2022-11-20T06:19:31;2.20;99.90
16968;DHT22;64862;54.398;10.126;2022-11-20T06:21:58;2.20;99.90
16968;DHT22;64862;54.398;10.126;2022-11-20T06:24:25;2.20;99.90
16968;DHT22;64862;54.398;10.126;2022-11-20T06:26:52;2.20;99.90
16968;DHT22;64862;54.398;10.126;2022-11-20T06:29:19;2.30;99.90
16968;DHT22;64862;54.398;10.126;2022-11-20T06:31:46;2.30;99.90
16968;DHT22;64862;54.398;10.126;2022-11-20T06:34:13;2.40;99.90
16968;DHT22;64862;54.398;10.126;2022-11-20T06:36:41;2.40;99.90
16968;DHT22;64862;54.398;10.126;2022-11-20T06:39:08;2.40;99.90
16968;DHT22;64862;54.398;10.126;2022-11-20T06:41:35;2.50;99.90
16968;DHT22;64862;54.398;10.126;2022-11-20T06:44:03;2.40;99.90
16968;DHT22;64862;54.398;10.126;2022-11-20T06:46:31;2.50;99.90
16968;DHT22;64862;54.398;10.126;2022-11-20T06:48:58;2.40;99.90
16968;DHT22;64862;54.398;10.126;2022-11-20T06:51:25;2.20;99.90
16968;DHT22;64862;54.398;10.126;2022-11-20T06:53:53;2.10;99.90
16968;DHT22;64862;54.398;10.126;2022-11-20T06:56:20;2.10;99.90
16968;DHT22;64862;54.398;10.126;2022-11-20T06:58:50;2.20;99.90
16968;DHT22;64862;54.398;10.126;2022-11-20T07:01:18;2.20;99.90
16968;DHT22;64862;54.398;10.126;2022-11-20T07:03:45;2.30;99.90
16968;DHT22;64862;54.398;10.126;2022-11-20T07:06:15;2.40;99.90
16968;DHT22;64862;54.398;10.126;2022-11-20T07:08:42;2.40;99.90
16968;DHT22;64862;54.398;10.126;2022-11-20T07:11:12;2.50;99.90
16968;DHT22;64862;54.398;10.126;2022-11-20T07:13:39;2.50;99.90
16968;DHT22;64862;54.398;10.126;2022-11-20T07:16:07;2.50;99.90
16968;DHT22;64862;54.398;10.126;2022-11-20T07:18:35;2.50;99.90
16968;DHT22;64862;54.398;10.126;2022-11-20T07:21:03;2.60;99.90
16968;DHT22;64862;54.398;10.126;2022-11-20T07:23:31;2.50;99.90
16968;DHT22;64862;54.398;10.126;2022-11-20T07:25:58;2.40;99.90
16968;DHT22;64862;54.398;10.126;2022-11-20T07:28:30;2.40;99.90
16968;DHT22;64862;54.398;10.126;2022-11-20T07:30:57;2.30;99.90
16968;DHT22;64862;54.398;10.126;2022-11-20T07:33:24;2.20;99.90
16968;DHT22;64862;54.398;10.126;2022-11-20T07:35:51;2.20;99.90
16968;DHT22;64862;54.398;10.126;2022-11-20T07:38:18;2.10;99.90
16968;DHT22;64862;54.398;10.126;2022-11-20T07:40:45;2.20;99.90
16968;DHT22;64862;54.398;10.126;2022-11-20T07:43:12;2.20;99.90
16968;DHT22;64862;54.398;10.126;2022-11-20T07:45:40;2.20;99.90
16968;DHT22;64862;54.398;10.126;2022-11-20T07:48:07;2.30;99.90
16968;DHT22;64862;54.398;10.126;2022-11-20T07:50:34;2.40;99.90
16968;DHT22;64862;54.398;10.126;2022-11-20T07:53:02;2.40;99.90
16968;DHT22;64862;54.398;10.126;2022-11-20T07:55:30;2.50;99.90
16968;DHT22;64862;54.398;10.126;2022-11-20T07:57:57;2.50;99.90
16968;DHT22;64862;54.398;10.126;2022-11-20T08:00:25;2.50;99.90
16968;DHT22;64862;54.398;10.126;2022-11-20T08:02:54;2.50;99.90
16968;DHT22;64862;54.398;10.126;2022-11-20T08:05:21;2.50;99.90
16968;DHT22;64862;54.398;10.126;2022-11-20T08:07:48;2.50;99.90
16968;DHT22;64862;54.398;10.126;2022-11-20T08:10:15;2.80;99.90
16968;DHT22;64862;54.398;10.126;2022-11-20T08:12:46;2.90;99.90
16968;DHT22;64862;54.398;10.126;2022-11-20T08:15:32;3.10;99.90
16968;DHT22;64862;54.398;10.126;2022-11-20T08:18:01;3.20;99.90
16968;DHT22;64862;54.398;10.126;2022-11-20T08:20:28;3.30;99.90
16968;DHT22;64862;54.398;10.126;2022-11-20T08:22:59;2.80;99.90
16968;DHT22;64862;54.398;10.126;2022-11-20T08:25:27;2.40;99.90
16968;DHT22;64862;54.398;10.126;2022-11-20T08:27:57;2.30;99.90
16968;DHT22;64862;54.398;10.126;2022-11-20T08:30:25;2.10;99.90
16968;DHT22;64862;54.398;10.126;2022-11-20T08:32:52;2.00;99.90
16968;DHT22;64862;54.398;10.126;2022-11-20T08:35:21;1.90;99.90
16968;DHT22;64862;54.398;10.126;2022-11-20T08:37:48;2.00;99.90
16968;DHT22;64862;54.398;10.126;2022-11-20T08:40:15;2.00;99.90
16968;DHT22;64862;54.398;10.126;2022-11-20T08:42:46;2.10;99.90
16968;DHT22;64862;54.398;10.126;2022-11-20T08:45:14;2.10;99.90
16968;DHT22;64862;54.398;10.126;2022-11-20T08:47:43;2.10;99.90
16968;DHT22;64862;54.398;10.126;2022-11-20T08:50:11;2.10;99.90
16968;DHT22;64862;54.398;10.126;2022-11-20T08:52:40;2.10;99.90
16968;DHT22;64862;54.398;10.126;2022-11-20T08:55:08;2.10;99.90
16968;DHT22;64862;54.398;10.126;2022-11-20T08:57:36;2.10;99.90
16968;DHT22;64862;54.398;10.126;2022-11-20T09:00:04;2.10;99.90
16968;DHT22;64862;54.398;10.126;2022-11-20T09:02:32;2.10;99.90
16968;DHT22;64862;54.398;10.126;2022-11-20T09:04:59;2.10;99.90
16968;DHT22;64862;54.398;10.126;2022-11-20T09:07:28;2.20;99.90
16968;DHT22;64862;54.398;10.126;2022-11-20T09:09:56;2.30;99.90
16968;DHT22;64862;54.398;10.126;2022-11-20T09:12:23;2.40;99.90
16968;DHT22;64862;54.398;10.126;2022-11-20T09:14:50;2.50;99.90
16968;DHT22;64862;54.398;10.126;2022-11-20T09:17:17;2.70;99.90
16968;DHT22;64862;54.398;10.126;2022-11-20T09:19:46;2.60;99.90
16968;DHT22;64862;54.398;10.126;2022-11-20T09:22:13;2.60;99.90
16968;DHT22;64862;54.398;10.126;2022-11-20T09:24:40;2.60;99.90
16968;DHT22;64862;54.398;10.126;2022-11-20T09:27:09;2.60;99.90
16968;DHT22;64862;54.398;10.126;2022-11-20T09:29:36;2.60;99.90
16968;DHT22;64862;54.398;10.126;2022-11-20T09:32:04;2.60;99.90
16968;DHT22;64862;54.398;10.126;2022-11-20T09:34:31;2.50;99.90
16968;DHT22;64862;54.398;10.126;2022-11-20T09:37:01;2.40;99.90
16968;DHT22;64862;54.398;10.126;2022-11-20T09:39:28;2.50;99.90
16968;DHT22;64862;54.398;10.126;2022-11-20T09:42:27;2.60;99.90
16968;DHT22;64862;54.398;10.126;2022-11-20T09:48:13;2.60;99.90
16968;DHT22;64862;54.398;10.126;2022-11-20T09:50:45;2.60;99.90
16968;DHT22;64862;54.398;10.126;2022-11-20T09:53:24;2.70;99.90
16968;DHT22;64862;54.398;10.126;2022-11-20T09:55:55;2.70;99.90
16968;DHT22;64862;54.398;10.126;2022-11-20T09:58:30;2.70;99.90
16968;DHT22;64862;54.398;10.126;2022-11-20T10:01:03;2.70;99.90
16968;DHT22;64862;54.398;10.126;2022-11-20T10:03:39;2.80;99.90
16968;DHT22;64862;54.398;10.126;2022-11-20T10:06:12;2.80;99.90
16968;DHT22;64862;54.398;10.126;2022-11-20T10:08:43;2.80;99.90
16968;DHT22;64862;54.398;10.126;2022-11-20T10:11:18;2.70;99.90
16968;DHT22;64862;54.398;10.126;2022-11-20T10:14:00;2.70;99.90
16968;DHT22;64862;54.398;10.126;2022-11-20T10:16:35;2.70;99.90
16968;DHT22;64862;54.398;10.126;2022-11-20T10:19:21;2.70;99.90
16968;DHT22;64862;54.398;10.126;2022-11-20T10:22:01;2.70;99.90
16968;DHT22;64862;54.398;10.126;2022-11-20T10:24:43;2.80;99.90
16968;DHT22;64862;54.398;10.126;2022-11-20T10:27:39;2.80;99.90
16968;DHT22;64862;54.398;10.126;2022-11-20T10:30:11;2.90;99.90
16968;DHT22;64862;54.398;10.126;2022-11-20T10:32:40;3.00;99.90
16968;DHT22;64862;54.398;10.126;2022-11-20T10:59:31;3.10;99.90
16968;DHT22;64862;54.398;10.126;2022-11-20T11:02:12;3.10;99.90
16968;DHT22;64862;54.398;10.126;2022-11-20T11:04:44;3.10;99.90
16968;DHT22;64862;54.398;10.126;2022-11-20T11:07:15;3.10;99.90
16968;DHT22;64862;54.398;10.126;2022-11-20T11:09:46;3.00;99.90
16968;DHT22;64862;54.398;10.126;2022-11-20T11:12:14;3.00;99.90
16968;DHT22;64862;54.398;10.126;2022-11-20T11:14:50;3.00;99.90
16968;DHT22;64862;54.398;10.126;2022-11-20T11:17:23;3.00;99.90
16968;DHT22;64862;54.398;10.126;2022-11-20T11:20:05;2.90;99.90
16968;DHT22;64862;54.398;10.126;2022-11-20T11:22:34;2.90;99.90
16968;DHT22;64862;54.398;10.126;2022-11-20T11:25:02;2.80;99.90
16968;DHT22;64862;54.398;10.126;2022-11-20T11:27:29;2.90;99.90
16968;DHT22;64862;54.398;10.126;2022-11-20T11:30:19;2.90;99.90
16968;DHT22;64862;54.398;10.126;2022-11-20T11:32:46;2.90;99.90
16968;DHT22;64862;54.398;10.126;2022-11-20T11:35:23;2.90;99.90
16968;DHT22;64862;54.398;10.126;2022-11-20T11:37:52;2.90;99.90
16968;DHT22;64862;54.398;10.126;2022-11-20T11:40:22;2.90;99.90
16968;DHT22;64862;54.398;10.126;2022-11-20T11:42:59;2.90;99.90
16968;DHT22;64862;54.398;10.126;2022-11-20T11:45:29;2.90;99.90
16968;DHT22;64862;54.398;10.126;2022-11-20T11:47:57;2.90;99.90
16968;DHT22;64862;54.398;10.126;2022-11-20T11:50:25;2.90;99.90
16968;DHT22;64862;54.398;10.126;2022-11-20T11:53:01;2.90;99.90
16968;DHT22;64862;54.398;10.126;2022-11-20T11:55:34;2.80;99.90
16968;DHT22;64862;54.398;10.126;2022-11-20T11:58:14;2.90;99.90
16968;DHT22;64862;54.398;10.126;2022-11-20T12:00:53;2.90;99.90
16968;DHT22;64862;54.398;10.126;2022-11-20T12:03:27;2.90;99.90
16968;DHT22;64862;54.398;10.126;2022-11-20T12:05:57;3.00;99.90
16968;DHT22;64862;54.398;10.126;2022-11-20T12:08:28;3.10;99.90
16968;DHT22;64862;54.398;10.126;2022-11-20T12:10:59;3.10;99.90
16968;DHT22;64862;54.398;10.126;2022-11-20T12:13:38;3.20;99.90
16968;DHT22;64862;54.398;10.126;2022-11-20T12:16:12;3.20;99.90
16968;DHT22;64862;54.398;10.126;2022-11-20T12:18:40;3.20;99.90
16968;DHT22;64862;54.398;10.126;2022-11-20T12:21:18;3.20;99.90
16968;DHT22;64862;54.398;10.126;2022-11-20T12:23:54;3.20;99.90
16968;DHT22;64862;54.398;10.126;2022-11-20T12:26:39;3.20;99.90
16968;DHT22;64862;54.398;10.126;2022-11-20T12:29:10;3.20;99.90
16968;DHT22;64862;54.398;10.126;2022-11-20T12:32:04;3.40;99.90
16968;DHT22;64862;54.398;10.126;2022-11-20T12:34:45;3.50;99.90
16968;DHT22;64862;54.398;10.126;2022-11-20T12:37:24;3.50;99.90
16968;DHT22;64862;54.398;10.126;2022-11-20T12:39:58;3.50;99.90
16968;DHT22;64862;54.398;10.126;2022-11-20T12:42:38;3.40;99.90
16968;DHT22;64862;54.398;10.126;2022-11-20T12:48:32;3.40;99.90
16968;DHT22;64862;54.398;10.126;2022-11-20T12:53:59;3.40;99.90
16968;DHT22;64862;54.398;10.126;2022-11-20T12:56:35;3.30;99.90
16968;DHT22;64862;54.398;10.126;2022-11-20T12:59:20;3.20;99.90
16968;DHT22;64862;54.398;10.126;2022-11-20T13:01:56;3.30;99.90
16968;DHT22;64862;54.398;10.126;2022-11-20T13:04:39;3.30;99.90
16968;DHT22;64862;54.398;10.126;2022-11-20T13:07:13;3.40;99.90
16968;DHT22;64862;54.398;10.126;2022-11-20T13:09:45;3.50;99.90
16968;DHT22;64862;54.398;10.126;2022-11-20T13:12:17;3.60;99.90
16968;DHT22;64862;54.398;10.126;2022-11-20T13:14:52;3.60;99.90
16968;DHT22;64862;54.398;10.126;2022-11-20T13:17:24;3.60;99.90
16968;DHT22;64862;54.398;10.126;2022-11-20T13:19:57;3.80;99.90
16968;DHT22;64862;54.398;10.126;2022-11-20T13:22:26;3.70;99.90
16968;DHT22;64862;54.398;10.126;2022-11-20T13:24:53;3.80;99.90
16968;DHT22;64862;54.398;10.126;2022-11-20T13:27:21;3.80;99.90
16968;DHT22;64862;54.398;10.126;2022-11-20T13:30:12;3.80;99.90
16968;DHT22;64862;54.398;10.126;2022-11-20T13:32:48;3.90;99.90
16968;DHT22;64862;54.398;10.126;2022-11-20T13:35:27;3.80;99.90
16968;DHT22;64862;54.398;10.126;2022-11-20T13:38:04;3.70;99.90
16968;DHT22;64862;54.398;10.126;2022-11-20T13:40:32;3.70;99.90
16968;DHT22;64862;54.398;10.126;2022-11-20T13:43:11;3.50;99.90
16968;DHT22;64862;54.398;10.126;2022-11-20T13:45:41;3.50;99.90
16968;DHT22;64862;54.398;10.126;2022-11-20T13:48:20;3.40;99.90
16968;DHT22;64862;54.398;10.126;2022-11-20T13:50:57;3.20;99.90
16968;DHT22;64862;54.398;10.126;2022-11-20T13:56:27;3.00;99.90
16968;DHT22;64862;54.398;10.126;2022-11-20T13:59:02;2.90;99.90
16968;DHT22;64862;54.398;10.126;2022-11-20T14:01:32;2.90;99.90
16968;DHT22;64862;54.398;10.126;2022-11-20T14:04:05;2.90;99.90
16968;DHT22;64862;54.398;10.126;2022-11-20T14:06:39;2.80;99.90
16968;DHT22;64862;54.398;10.126;2022-11-20T14:09:10;2.80;99.90
16968;DHT22;64862;54.398;10.126;2022-11-20T14:11:46;2.70;99.90
16968;DHT22;64862;54.398;10.126;2022-11-20T14:14:16;2.70;99.90
16968;DHT22;64862;54.398;10.126;2022-11-20T14:16:43;2.70;99.90
16968;DHT22;64862;54.398;10.126;2022-11-20T14:19:28;2.70;99.90
16968;DHT22;64862;54.398;10.126;2022-11-20T14:22:16;2.70;99.90
16968;DHT22;64862;54.398;10.126;2022-11-20T14:24:44;2.70;99.90
16968;DHT22;64862;54.398;10.126;2022-11-20T14:27:16;2.70;99.90
16968;DHT22;64862;54.398;10.126;2022-11-20T14:29:48;2.70;99.90
16968;DHT22;64862;54.398;10.126;2022-11-20T14:32:17;2.70;99.90
16968;DHT22;64862;54.398;10.126;2022-11-20T14:34:47;2.70;99.90
16968;DHT22;64862;54.398;10.126;2022-11-20T14:37:21;2.60;99.90
16968;DHT22;64862;54.398;10.126;2022-11-20T14:39:50;2.60;99.90
16968;DHT22;64862;54.398;10.126;2022-11-20T14:42:20;2.70;99.90
16968;DHT22;64862;54.398;10.126;2022-11-20T14:44:50;2.60;99.90
16968;DHT22;64862;54.398;10.126;2022-11-20T14:47:22;2.50;99.90
16968;DHT22;64862;54.398;10.126;2022-11-20T14:49:51;2.30;99.90
16968;DHT22;64862;54.398;10.126;2022-11-20T14:52:21;2.10;99.90
16968;DHT22;64862;54.398;10.126;2022-11-20T14:54:50;2.10;99.90
16968;DHT22;64862;54.398;10.126;2022-11-20T14:57:22;2.00;99.90
16968;DHT22;64862;54.398;10.126;2022-11-20T14:59:50;1.80;99.90
16968;DHT22;64862;54.398;10.126;2022-11-20T15:02:17;1.70;99.90
16968;DHT22;64862;54.398;10.126;2022-11-20T15:04:45;1.60;99.90
16968;DHT22;64862;54.398;10.126;2022-11-20T15:07:25;1.50;99.90
16968;DHT22;64862;54.398;10.126;2022-11-20T15:10:08;1.40;99.90
16968;DHT22;64862;54.398;10.126;2022-11-20T15:12:37;1.40;99.90
16968;DHT22;64862;54.398;10.126;2022-11-20T15:15:09;1.40;99.90
16968;DHT22;64862;54.398;10.126;2022-11-20T15:17:40;1.40;99.90
16968;DHT22;64862;54.398;10.126;2022-11-20T15:20:12;1.50;99.90
16968;DHT22;64862;54.398;10.126;2022-11-20T15:22:41;1.50;99.90
16968;DHT22;64862;54.398;10.126;2022-11-20T15:25:12;1.50;99.90
16968;DHT22;64862;54.398;10.126;2022-11-20T15:27:40;1.40;99.90
16968;DHT22;64862;54.398;10.126;2022-11-20T15:30:15;1.40;99.90
16968;DHT22;64862;54.398;10.126;2022-11-20T15:32:45;1.30;99.90
16968;DHT22;64862;54.398;10.126;2022-11-20T15:35:13;1.30;99.90
16968;DHT22;64862;54.398;10.126;2022-11-20T15:37:42;1.20;99.90
16968;DHT22;64862;54.398;10.126;2022-11-20T15:40:09;1.10;99.90
16968;DHT22;64862;54.398;10.126;2022-11-20T15:42:36;1.20;99.90
16968;DHT22;64862;54.398;10.126;2022-11-20T15:45:04;1.30;99.90
16968;DHT22;64862;54.398;10.126;2022-11-20T15:47:33;1.30;99.90
16968;DHT22;64862;54.398;10.126;2022-11-20T15:50:02;1.40;99.90
16968;DHT22;64862;54.398;10.126;2022-11-20T15:52:29;1.40;99.90
16968;DHT22;64862;54.398;10.126;2022-11-20T15:54:57;1.20;99.90
16968;DHT22;64862;54.398;10.126;2022-11-20T15:57:24;1.20;99.90
16968;DHT22;64862;54.398;10.126;2022-11-20T15:59:52;1.20;99.90
16968;DHT22;64862;54.398;10.126;2022-11-20T16:02:19;1.10;99.90
16968;DHT22;64862;54.398;10.126;2022-11-20T16:04:46;1.00;99.90
16968;DHT22;64862;54.398;10.126;2022-11-20T16:07:13;1.00;99.90
16968;DHT22;64862;54.398;10.126;2022-11-20T16:09:40;1.00;99.90
16968;DHT22;64862;54.398;10.126;2022-11-20T16:12:10;1.10;99.90
16968;DHT22;64862;54.398;10.126;2022-11-20T16:14:58;1.10;99.90
16968;DHT22;64862;54.398;10.126;2022-11-20T16:17:43;1.10;99.90
16968;DHT22;64862;54.398;10.126;2022-11-20T16:20:11;1.10;99.90
16968;DHT22;64862;54.398;10.126;2022-11-20T16:22:38;1.00;99.90
16968;DHT22;64862;54.398;10.126;2022-11-20T16:25:05;1.10;99.90
16968;DHT22;64862;54.398;10.126;2022-11-20T16:27:34;1.10;99.90
16968;DHT22;64862;54.398;10.126;2022-11-20T16:30:01;1.00;99.90